Minnie, Kentucky
Current Conditions -  °F | °C
As of 5:15 AM on Sunday 25 Jan 2015 (Local Time) from KPBX Reporting Station
Clear Clear  
Wind Chill: 31°   Ceiling: Unl
Heat Index: 36°   Visibility: 10mi
Dew Point: 29°   Wind: 6mph
Humidity: 78%   Direction: 190°S
Pressure: 29.8"   Gusts: NA
Location:  37.48°N, 82.76°W
Report Text: KPBX 251015Z AUTO 19005KT 10SM CLR 02/M01 A2980 RMK AO2 T00201015
Loading
Personal Weather Stations






























Interactive Weather Map New forecast layout! Learn more

10-Day Weather Forecast

Advertisements
Track Severe Weather on mobile